sensor_id;sensor_type;location;lat;lon;timestamp;P1;durP1;ratioP1;P2;durP2;ratioP2
60492;SDS011;46341;51.290;-2.474;2023-05-07T00:00:34;20.13;;;12.85;;
60492;SDS011;46341;51.290;-2.474;2023-05-07T00:03:00;23.25;;;13.95;;
60492;SDS011;46341;51.290;-2.474;2023-05-07T00:05:27;21.47;;;12.87;;
60492;SDS011;46341;51.290;-2.474;2023-05-07T00:07:54;21.58;;;12.20;;
60492;SDS011;46341;51.290;-2.474;2023-05-07T00:10:22;20.83;;;12.93;;
60492;SDS011;46341;51.290;-2.474;2023-05-07T00:12:49;21.20;;;14.57;;
60492;SDS011;46341;51.290;-2.474;2023-05-07T00:15:15;17.33;;;12.93;;
60492;SDS011;46341;51.290;-2.474;2023-05-07T00:17:41;22.60;;;13.90;;
60492;SDS011;46341;51.290;-2.474;2023-05-07T00:20:08;36.15;;;20.63;;
60492;SDS011;46341;51.290;-2.474;2023-05-07T00:22:35;23.65;;;15.70;;
60492;SDS011;46341;51.290;-2.474;2023-05-07T00:25:01;21.23;;;13.25;;
60492;SDS011;46341;51.290;-2.474;2023-05-07T00:27:28;21.20;;;13.70;;
60492;SDS011;46341;51.290;-2.474;2023-05-07T00:29:54;25.33;;;15.02;;
60492;SDS011;46341;51.290;-2.474;2023-05-07T00:32:20;22.30;;;13.75;;
60492;SDS011;46341;51.290;-2.474;2023-05-07T00:34:47;23.23;;;13.60;;
60492;SDS011;46341;51.290;-2.474;2023-05-07T00:37:13;23.20;;;14.48;;
60492;SDS011;46341;51.290;-2.474;2023-05-07T00:39:40;35.53;;;22.35;;
60492;SDS011;46341;51.290;-2.474;2023-05-07T00:42:06;42.05;;;27.55;;
60492;SDS011;46341;51.290;-2.474;2023-05-07T00:44:32;40.75;;;26.80;;
60492;SDS011;46341;51.290;-2.474;2023-05-07T00:46:59;26.23;;;14.20;;
60492;SDS011;46341;51.290;-2.474;2023-05-07T00:49:32;24.73;;;15.80;;
60492;SDS011;46341;51.290;-2.474;2023-05-07T00:52:00;24.35;;;15.50;;
60492;SDS011;46341;51.290;-2.474;2023-05-07T00:54:27;25.85;;;18.13;;
60492;SDS011;46341;51.290;-2.474;2023-05-07T00:56:53;42.42;;;27.33;;
60492;SDS011;46341;51.290;-2.474;2023-05-07T00:59:20;47.38;;;30.50;;
60492;SDS011;46341;51.290;-2.474;2023-05-07T01:01:47;26.45;;;19.17;;
60492;SDS011;46341;51.290;-2.474;2023-05-07T01:04:13;24.83;;;15.60;;
60492;SDS011;46341;51.290;-2.474;2023-05-07T01:06:40;24.63;;;14.82;;
60492;SDS011;46341;51.290;-2.474;2023-05-07T01:09:07;24.70;;;17.30;;
60492;SDS011;46341;51.290;-2.474;2023-05-07T01:11:35;34.97;;;23.02;;
60492;SDS011;46341;51.290;-2.474;2023-05-07T01:14:01;25.17;;;15.75;;
60492;SDS011;46341;51.290;-2.474;2023-05-07T01:16:28;24.00;;;15.00;;
60492;SDS011;46341;51.290;-2.474;2023-05-07T01:18:55;30.17;;;17.13;;
60492;SDS011;46341;51.290;-2.474;2023-05-07T01:21:24;25.45;;;16.90;;
60492;SDS011;46341;51.290;-2.474;2023-05-07T01:23:51;25.95;;;16.85;;
60492;SDS011;46341;51.290;-2.474;2023-05-07T01:26:17;30.13;;;18.70;;
60492;SDS011;46341;51.290;-2.474;2023-05-07T01:28:45;27.55;;;19.90;;
60492;SDS011;46341;51.290;-2.474;2023-05-07T01:31:12;23.55;;;17.23;;
60492;SDS011;46341;51.290;-2.474;2023-05-07T01:33:40;21.02;;;15.20;;
60492;SDS011;46341;51.290;-2.474;2023-05-07T01:36:07;18.30;;;13.32;;
60492;SDS011;46341;51.290;-2.474;2023-05-07T01:38:35;27.02;;;13.20;;
60492;SDS011;46341;51.290;-2.474;2023-05-07T01:41:02;19.00;;;12.48;;
60492;SDS011;46341;51.290;-2.474;2023-05-07T01:43:29;15.70;;;12.15;;
60492;SDS011;46341;51.290;-2.474;2023-05-07T01:45:57;17.08;;;12.48;;
60492;SDS011;46341;51.290;-2.474;2023-05-07T01:48:24;18.60;;;12.13;;
60492;SDS011;46341;51.290;-2.474;2023-05-07T01:50:50;16.25;;;12.13;;
60492;SDS011;46341;51.290;-2.474;2023-05-07T01:53:17;17.83;;;11.50;;
60492;SDS011;46341;51.290;-2.474;2023-05-07T01:55:43;14.57;;;11.13;;
60492;SDS011;46341;51.290;-2.474;2023-05-07T01:58:10;17.05;;;11.55;;
60492;SDS011;46341;51.290;-2.474;2023-05-07T02:00:36;17.13;;;12.27;;
60492;SDS011;46341;51.290;-2.474;2023-05-07T02:03:03;16.85;;;12.77;;
60492;SDS011;46341;51.290;-2.474;2023-05-07T02:05:29;25.08;;;17.58;;
60492;SDS011;46341;51.290;-2.474;2023-05-07T02:07:56;24.90;;;14.65;;
60492;SDS011;46341;51.290;-2.474;2023-05-07T02:10:22;18.85;;;14.25;;
60492;SDS011;46341;51.290;-2.474;2023-05-07T02:12:48;20.38;;;14.52;;
60492;SDS011;46341;51.290;-2.474;2023-05-07T02:15:15;21.20;;;15.05;;
60492;SDS011;46341;51.290;-2.474;2023-05-07T02:18:00;23.20;;;16.40;;
60492;SDS011;46341;51.290;-2.474;2023-05-07T02:20:27;21.42;;;14.30;;
60492;SDS011;46341;51.290;-2.474;2023-05-07T02:22:54;18.30;;;13.65;;
60492;SDS011;46341;51.290;-2.474;2023-05-07T02:25:20;18.00;;;12.90;;
60492;SDS011;46341;51.290;-2.474;2023-05-07T02:27:46;18.58;;;12.52;;
60492;SDS011;46341;51.290;-2.474;2023-05-07T02:30:13;20.13;;;14.55;;
60492;SDS011;46341;51.290;-2.474;2023-05-07T02:32:40;18.00;;;13.20;;
60492;SDS011;46341;51.290;-2.474;2023-05-07T02:35:06;17.30;;;12.48;;
60492;SDS011;46341;51.290;-2.474;2023-05-07T02:37:33;25.42;;;15.75;;
60492;SDS011;46341;51.290;-2.474;2023-05-07T02:39:59;23.45;;;16.92;;
60492;SDS011;46341;51.290;-2.474;2023-05-07T02:42:26;24.40;;;16.10;;
60492;SDS011;46341;51.290;-2.474;2023-05-07T02:44:52;28.65;;;17.45;;
60492;SDS011;46341;51.290;-2.474;2023-05-07T02:47:19;31.25;;;17.92;;
60492;SDS011;46341;51.290;-2.474;2023-05-07T02:49:45;27.90;;;18.02;;
60492;SDS011;46341;51.290;-2.474;2023-05-07T02:52:11;31.73;;;20.13;;
60492;SDS011;46341;51.290;-2.474;2023-05-07T02:54:38;28.10;;;18.67;;
60492;SDS011;46341;51.290;-2.474;2023-05-07T02:57:04;27.42;;;17.35;;
60492;SDS011;46341;51.290;-2.474;2023-05-07T02:59:30;24.70;;;16.35;;
60492;SDS011;46341;51.290;-2.474;2023-05-07T03:01:57;25.23;;;17.10;;
60492;SDS011;46341;51.290;-2.474;2023-05-07T03:04:23;31.60;;;18.65;;
60492;SDS011;46341;51.290;-2.474;2023-05-07T03:06:50;29.88;;;18.17;;
60492;SDS011;46341;51.290;-2.474;2023-05-07T03:09:16;25.85;;;17.30;;
60492;SDS011;46341;51.290;-2.474;2023-05-07T03:11:42;29.48;;;18.83;;
60492;SDS011;46341;51.290;-2.474;2023-05-07T03:14:09;30.85;;;18.70;;
60492;SDS011;46341;51.290;-2.474;2023-05-07T03:16:35;28.77;;;18.98;;
60492;SDS011;46341;51.290;-2.474;2023-05-07T03:19:02;22.35;;;15.65;;
60492;SDS011;46341;51.290;-2.474;2023-05-07T03:21:28;25.70;;;15.75;;
60492;SDS011;46341;51.290;-2.474;2023-05-07T03:23:55;22.55;;;15.32;;
60492;SDS011;46341;51.290;-2.474;2023-05-07T03:26:21;21.00;;;15.43;;
60492;SDS011;46341;51.290;-2.474;2023-05-07T03:28:48;23.30;;;14.68;;
60492;SDS011;46341;51.290;-2.474;2023-05-07T03:31:14;23.63;;;14.82;;
60492;SDS011;46341;51.290;-2.474;2023-05-07T03:33:53;20.80;;;13.48;;
60492;SDS011;46341;51.290;-2.474;2023-05-07T03:36:20;16.08;;;12.88;;
60492;SDS011;46341;51.290;-2.474;2023-05-07T03:38:47;20.20;;;14.15;;
60492;SDS011;46341;51.290;-2.474;2023-05-07T03:41:14;19.88;;;14.32;;
60492;SDS011;46341;51.290;-2.474;2023-05-07T03:43:40;20.10;;;14.10;;
60492;SDS011;46341;51.290;-2.474;2023-05-07T03:46:07;20.05;;;14.75;;
60492;SDS011;46341;51.290;-2.474;2023-05-07T03:48:33;20.45;;;14.27;;
60492;SDS011;46341;51.290;-2.474;2023-05-07T03:51:00;23.40;;;15.13;;
60492;SDS011;46341;51.290;-2.474;2023-05-07T03:53:26;22.45;;;15.50;;
60492;SDS011;46341;51.290;-2.474;2023-05-07T03:55:52;23.27;;;16.48;;
60492;SDS011;46341;51.290;-2.474;2023-05-07T03:58:19;29.73;;;17.33;;
60492;SDS011;46341;51.290;-2.474;2023-05-07T04:00:45;23.88;;;16.42;;
60492;SDS011;46341;51.290;-2.474;2023-05-07T04:03:12;28.25;;;17.20;;
60492;SDS011;46341;51.290;-2.474;2023-05-07T04:05:38;24.55;;;15.85;;
60492;SDS011;46341;51.290;-2.474;2023-05-07T04:08:05;24.58;;;16.48;;
60492;SDS011;46341;51.290;-2.474;2023-05-07T04:10:31;29.38;;;16.85;;
60492;SDS011;46341;51.290;-2.474;2023-05-07T04:12:58;23.70;;;16.13;;
60492;SDS011;46341;51.290;-2.474;2023-05-07T04:15:24;23.55;;;16.85;;
60492;SDS011;46341;51.290;-2.474;2023-05-07T04:17:51;25.60;;;16.60;;
60492;SDS011;46341;51.290;-2.474;2023-05-07T04:20:17;30.10;;;17.13;;
60492;SDS011;46341;51.290;-2.474;2023-05-07T04:22:44;24.30;;;16.92;;
60492;SDS011;46341;51.290;-2.474;2023-05-07T04:25:10;28.85;;;17.25;;
60492;SDS011;46341;51.290;-2.474;2023-05-07T04:27:36;29.00;;;17.40;;
60492;SDS011;46341;51.290;-2.474;2023-05-07T04:30:03;29.30;;;17.92;;
60492;SDS011;46341;51.290;-2.474;2023-05-07T04:32:30;26.50;;;17.20;;
60492;SDS011;46341;51.290;-2.474;2023-05-07T04:34:56;18.30;;;14.30;;
60492;SDS011;46341;51.290;-2.474;2023-05-07T04:37:23;15.88;;;12.82;;
60492;SDS011;46341;51.290;-2.474;2023-05-07T04:39:49;18.08;;;12.98;;
60492;SDS011;46341;51.290;-2.474;2023-05-07T04:42:16;18.15;;;13.48;;
60492;SDS011;46341;51.290;-2.474;2023-05-07T04:44:43;18.08;;;13.50;;
60492;SDS011;46341;51.290;-2.474;2023-05-07T04:47:09;18.75;;;12.68;;
60492;SDS011;46341;51.290;-2.474;2023-05-07T04:49:36;17.23;;;13.15;;
60492;SDS011;46341;51.290;-2.474;2023-05-07T04:52:03;14.48;;;11.52;;
60492;SDS011;46341;51.290;-2.474;2023-05-07T04:54:29;20.33;;;14.10;;
60492;SDS011;46341;51.290;-2.474;2023-05-07T04:56:56;14.90;;;12.45;;
60492;SDS011;46341;51.290;-2.474;2023-05-07T04:59:22;16.58;;;11.77;;
60492;SDS011;46341;51.290;-2.474;2023-05-07T05:01:49;20.77;;;14.13;;
60492;SDS011;46341;51.290;-2.474;2023-05-07T05:04:15;18.63;;;13.90;;
60492;SDS011;46341;51.290;-2.474;2023-05-07T05:06:41;17.25;;;12.90;;
60492;SDS011;46341;51.290;-2.474;2023-05-07T05:09:08;23.80;;;14.13;;
60492;SDS011;46341;51.290;-2.474;2023-05-07T05:11:34;22.30;;;15.40;;
60492;SDS011;46341;51.290;-2.474;2023-05-07T05:14:01;25.33;;;16.00;;
60492;SDS011;46341;51.290;-2.474;2023-05-07T05:16:28;22.63;;;16.35;;
60492;SDS011;46341;51.290;-2.474;2023-05-07T05:18:54;28.00;;;17.88;;
60492;SDS011;46341;51.290;-2.474;2023-05-07T05:21:21;21.58;;;15.55;;
60492;SDS011;46341;51.290;-2.474;2023-05-07T05:23:47;17.92;;;14.75;;
60492;SDS011;46341;51.290;-2.474;2023-05-07T05:26:13;13.90;;;11.77;;
60492;SDS011;46341;51.290;-2.474;2023-05-07T05:28:40;14.93;;;13.13;;
60492;SDS011;46341;51.290;-2.474;2023-05-07T05:31:06;16.08;;;12.52;;
60492;SDS011;46341;51.290;-2.474;2023-05-07T05:33:33;13.98;;;11.93;;
60492;SDS011;46341;51.290;-2.474;2023-05-07T05:35:59;20.15;;;15.05;;
60492;SDS011;46341;51.290;-2.474;2023-05-07T05:38:25;19.50;;;15.68;;
60492;SDS011;46341;51.290;-2.474;2023-05-07T05:40:52;19.40;;;14.50;;
60492;SDS011;46341;51.290;-2.474;2023-05-07T05:43:21;18.80;;;14.98;;
60492;SDS011;46341;51.290;-2.474;2023-05-07T05:45:47;22.90;;;16.20;;
60492;SDS011;46341;51.290;-2.474;2023-05-07T05:48:14;19.73;;;15.02;;
60492;SDS011;46341;51.290;-2.474;2023-05-07T05:50:41;20.77;;;15.00;;
60492;SDS011;46341;51.290;-2.474;2023-05-07T05:53:08;18.45;;;14.57;;
60492;SDS011;46341;51.290;-2.474;2023-05-07T05:55:34;18.92;;;14.23;;
60492;SDS011;46341;51.290;-2.474;2023-05-07T05:58:01;20.42;;;14.93;;
60492;SDS011;46341;51.290;-2.474;2023-05-07T06:00:27;19.38;;;15.57;;
60492;SDS011;46341;51.290;-2.474;2023-05-07T06:02:54;22.67;;;16.53;;
60492;SDS011;46341;51.290;-2.474;2023-05-07T06:05:21;20.73;;;14.80;;
60492;SDS011;46341;51.290;-2.474;2023-05-07T06:07:47;19.00;;;15.50;;
60492;SDS011;46341;51.290;-2.474;2023-05-07T06:10:13;19.30;;;14.52;;
60492;SDS011;46341;51.290;-2.474;2023-05-07T06:12:40;19.27;;;14.60;;
60492;SDS011;46341;51.290;-2.474;2023-05-07T06:15:07;23.45;;;16.85;;
60492;SDS011;46341;51.290;-2.474;2023-05-07T06:17:33;22.40;;;17.25;;
60492;SDS011;46341;51.290;-2.474;2023-05-07T06:20:00;22.92;;;17.80;;
60492;SDS011;46341;51.290;-2.474;2023-05-07T06:22:26;22.95;;;17.35;;
60492;SDS011;46341;51.290;-2.474;2023-05-07T06:24:53;23.77;;;17.35;;
60492;SDS011;46341;51.290;-2.474;2023-05-07T06:27:19;21.23;;;16.67;;
60492;SDS011;46341;51.290;-2.474;2023-05-07T06:29:47;17.48;;;13.73;;
60492;SDS011;46341;51.290;-2.474;2023-05-07T06:32:14;20.80;;;15.77;;
60492;SDS011;46341;51.290;-2.474;2023-05-07T06:34:40;19.52;;;14.75;;
60492;SDS011;46341;51.290;-2.474;2023-05-07T06:37:07;19.00;;;14.93;;
60492;SDS011;46341;51.290;-2.474;2023-05-07T06:39:33;19.42;;;15.80;;
60492;SDS011;46341;51.290;-2.474;2023-05-07T06:42:00;21.63;;;16.17;;
60492;SDS011;46341;51.290;-2.474;2023-05-07T06:46:54;20.88;;;15.50;;
60492;SDS011;46341;51.290;-2.474;2023-05-07T06:49:20;22.95;;;15.77;;
60492;SDS011;46341;51.290;-2.474;2023-05-07T06:51:46;19.77;;;14.85;;
60492;SDS011;46341;51.290;-2.474;2023-05-07T06:54:13;20.23;;;15.48;;
60492;SDS011;46341;51.290;-2.474;2023-05-07T06:56:39;17.70;;;14.32;;
60492;SDS011;46341;51.290;-2.474;2023-05-07T06:59:06;20.25;;;15.23;;
60492;SDS011;46341;51.290;-2.474;2023-05-07T07:01:32;19.23;;;13.68;;
60492;SDS011;46341;51.290;-2.474;2023-05-07T07:03:59;19.60;;;13.77;;
60492;SDS011;46341;51.290;-2.474;2023-05-07T07:06:25;23.63;;;14.00;;
60492;SDS011;46341;51.290;-2.474;2023-05-07T07:08:52;19.27;;;13.02;;
60492;SDS011;46341;51.290;-2.474;2023-05-07T07:11:18;18.27;;;12.52;;
60492;SDS011;46341;51.290;-2.474;2023-05-07T07:13:45;18.40;;;11.90;;
60492;SDS011;46341;51.290;-2.474;2023-05-07T07:16:11;17.00;;;12.60;;
60492;SDS011;46341;51.290;-2.474;2023-05-07T07:18:38;15.70;;;12.10;;
60492;SDS011;46341;51.290;-2.474;2023-05-07T07:21:05;15.50;;;11.10;;
60492;SDS011;46341;51.290;-2.474;2023-05-07T07:23:31;20.70;;;13.20;;
60492;SDS011;46341;51.290;-2.474;2023-05-07T07:25:57;15.88;;;12.02;;
60492;SDS011;46341;51.290;-2.474;2023-05-07T07:28:24;13.35;;;9.63;;
60492;SDS011;46341;51.290;-2.474;2023-05-07T07:30:50;14.57;;;9.88;;
60492;SDS011;46341;51.290;-2.474;2023-05-07T07:33:17;13.90;;;9.10;;
60492;SDS011;46341;51.290;-2.474;2023-05-07T07:35:43;15.80;;;10.60;;
60492;SDS011;46341;51.290;-2.474;2023-05-07T07:38:10;18.40;;;12.10;;
60492;SDS011;46341;51.290;-2.474;2023-05-07T07:40:37;18.53;;;14.03;;
60492;SDS011;46341;51.290;-2.474;2023-05-07T07:43:03;19.48;;;14.18;;
60492;SDS011;46341;51.290;-2.474;2023-05-07T07:45:31;18.42;;;13.52;;
60492;SDS011;46341;51.290;-2.474;2023-05-07T07:47:58;16.45;;;13.63;;
60492;SDS011;46341;51.290;-2.474;2023-05-07T07:50:24;16.23;;;14.30;;
60492;SDS011;46341;51.290;-2.474;2023-05-07T07:52:57;18.90;;;14.98;;
60492;SDS011;46341;51.290;-2.474;2023-05-07T07:55:23;16.27;;;14.20;;
60492;SDS011;46341;51.290;-2.474;2023-05-07T07:57:50;18.13;;;14.85;;
60492;SDS011;46341;51.290;-2.474;2023-05-07T08:00:17;16.45;;;14.75;;
60492;SDS011;46341;51.290;-2.474;2023-05-07T08:02:44;15.27;;;13.50;;
60492;SDS011;46341;51.290;-2.474;2023-05-07T08:05:11;18.60;;;14.48;;
60492;SDS011;46341;51.290;-2.474;2023-05-07T08:07:38;17.43;;;14.50;;
60492;SDS011;46341;51.290;-2.474;2023-05-07T08:10:04;18.47;;;13.53;;
60492;SDS011;46341;51.290;-2.474;2023-05-07T08:12:31;16.67;;;14.32;;
60492;SDS011;46341;51.290;-2.474;2023-05-07T08:14:57;15.90;;;14.15;;
60492;SDS011;46341;51.290;-2.474;2023-05-07T08:17:24;16.20;;;13.88;;
60492;SDS011;46341;51.290;-2.474;2023-05-07T08:19:50;17.67;;;14.77;;
60492;SDS011;46341;51.290;-2.474;2023-05-07T08:22:17;18.30;;;16.00;;
60492;SDS011;46341;51.290;-2.474;2023-05-07T08:24:44;17.35;;;15.23;;
60492;SDS011;46341;51.290;-2.474;2023-05-07T08:27:11;18.33;;;15.85;;
60492;SDS011;46341;51.290;-2.474;2023-05-07T08:29:37;20.85;;;16.88;;
60492;SDS011;46341;51.290;-2.474;2023-05-07T08:32:04;24.17;;;17.73;;
60492;SDS011;46341;51.290;-2.474;2023-05-07T08:34:30;19.65;;;16.52;;
60492;SDS011;46341;51.290;-2.474;2023-05-07T08:36:57;17.58;;;15.75;;
60492;SDS011;46341;51.290;-2.474;2023-05-07T08:39:23;20.13;;;17.02;;
60492;SDS011;46341;51.290;-2.474;2023-05-07T08:41:49;19.98;;;16.40;;
60492;SDS011;46341;51.290;-2.474;2023-05-07T08:44:18;22.73;;;16.40;;
60492;SDS011;46341;51.290;-2.474;2023-05-07T08:46:48;21.33;;;18.20;;
60492;SDS011;46341;51.290;-2.474;2023-05-07T08:49:17;18.98;;;16.33;;
60492;SDS011;46341;51.290;-2.474;2023-05-07T08:51:44;23.27;;;18.58;;
60492;SDS011;46341;51.290;-2.474;2023-05-07T08:54:10;23.77;;;18.42;;
60492;SDS011;46341;51.290;-2.474;2023-05-07T08:56:37;18.83;;;16.10;;
60492;SDS011;46341;51.290;-2.474;2023-05-07T08:59:03;19.20;;;17.13;;
60492;SDS011;46341;51.290;-2.474;2023-05-07T09:01:30;18.35;;;15.23;;
60492;SDS011;46341;51.290;-2.474;2023-05-07T09:03:57;18.85;;;16.10;;
60492;SDS011;46341;51.290;-2.474;2023-05-07T09:06:23;15.00;;;13.40;;
60492;SDS011;46341;51.290;-2.474;2023-05-07T09:08:50;16.73;;;14.75;;
60492;SDS011;46341;51.290;-2.474;2023-05-07T09:11:19;16.33;;;14.63;;
60492;SDS011;46341;51.290;-2.474;2023-05-07T09:13:47;16.95;;;15.23;;
60492;SDS011;46341;51.290;-2.474;2023-05-07T09:16:13;15.65;;;14.00;;
60492;SDS011;46341;51.290;-2.474;2023-05-07T09:18:43;21.40;;;16.67;;
60492;SDS011;46341;51.290;-2.474;2023-05-07T09:21:10;18.30;;;15.77;;
60492;SDS011;46341;51.290;-2.474;2023-05-07T09:23:37;18.42;;;15.10;;
60492;SDS011;46341;51.290;-2.474;2023-05-07T09:26:03;19.38;;;16.10;;
60492;SDS011;46341;51.290;-2.474;2023-05-07T09:28:31;17.30;;;15.50;;
60492;SDS011;46341;51.290;-2.474;2023-05-07T09:30:59;20.67;;;16.80;;
60492;SDS011;46341;51.290;-2.474;2023-05-07T09:33:26;15.55;;;13.93;;
60492;SDS011;46341;51.290;-2.474;2023-05-07T09:35:53;24.90;;;20.00;;
60492;SDS011;46341;51.290;-2.474;2023-05-07T09:38:20;19.77;;;17.57;;
60492;SDS011;46341;51.290;-2.474;2023-05-07T09:40:47;19.85;;;16.02;;
60492;SDS011;46341;51.290;-2.474;2023-05-07T09:43:13;11.43;;;9.80;;
60492;SDS011;46341;51.290;-2.474;2023-05-07T09:45:40;9.20;;;8.35;;
60492;SDS011;46341;51.290;-2.474;2023-05-07T09:48:07;7.07;;;6.38;;
60492;SDS011;46341;51.290;-2.474;2023-05-07T09:50:48;9.57;;;7.55;;
60492;SDS011;46341;51.290;-2.474;2023-05-07T09:53:14;10.50;;;8.18;;
60492;SDS011;46341;51.290;-2.474;2023-05-07T09:55:42;9.65;;;8.63;;
60492;SDS011;46341;51.290;-2.474;2023-05-07T09:58:08;9.30;;;8.38;;
60492;SDS011;46341;51.290;-2.474;2023-05-07T10:00:35;12.20;;;9.82;;
60492;SDS011;46341;51.290;-2.474;2023-05-07T10:03:03;11.10;;;9.65;;
60492;SDS011;46341;51.290;-2.474;2023-05-07T10:05:31;10.88;;;9.35;;
60492;SDS011;46341;51.290;-2.474;2023-05-07T10:07:58;10.45;;;9.35;;
60492;SDS011;46341;51.290;-2.474;2023-05-07T10:10:24;10.15;;;9.15;;
60492;SDS011;46341;51.290;-2.474;2023-05-07T10:12:51;9.80;;;8.63;;
60492;SDS011;46341;51.290;-2.474;2023-05-07T10:17:44;11.95;;;10.02;;
60492;SDS011;46341;51.290;-2.474;2023-05-07T10:20:11;10.15;;;8.48;;
60492;SDS011;46341;51.290;-2.474;2023-05-07T10:22:41;9.68;;;8.30;;
60492;SDS011;46341;51.290;-2.474;2023-05-07T10:25:32;11.40;;;10.20;;
60492;SDS011;46341;51.290;-2.474;2023-05-07T10:27:57;11.18;;;10.02;;
60492;SDS011;46341;51.290;-2.474;2023-05-07T10:30:32;10.93;;;9.82;;
60492;SDS011;46341;51.290;-2.474;2023-05-07T10:33:04;10.75;;;9.65;;
60492;SDS011;46341;51.290;-2.474;2023-05-07T10:35:36;11.15;;;10.05;;
60492;SDS011;46341;51.290;-2.474;2023-05-07T10:38:04;10.68;;;9.50;;
60492;SDS011;46341;51.290;-2.474;2023-05-07T10:42:57;8.63;;;7.72;;
60492;SDS011;46341;51.290;-2.474;2023-05-07T10:45:25;8.20;;;6.68;;
60492;SDS011;46341;51.290;-2.474;2023-05-07T10:50:21;8.05;;;5.60;;
60492;SDS011;46341;51.290;-2.474;2023-05-07T10:53:12;6.05;;;5.43;;
60492;SDS011;46341;51.290;-2.474;2023-05-07T10:55:34;6.88;;;5.35;;
60492;SDS011;46341;51.290;-2.474;2023-05-07T11:00:58;5.65;;;4.97;;
60492;SDS011;46341;51.290;-2.474;2023-05-07T11:03:25;5.53;;;4.88;;
60492;SDS011;46341;51.290;-2.474;2023-05-07T11:11:18;6.30;;;5.03;;
60492;SDS011;46341;51.290;-2.474;2023-05-07T11:13:48;5.50;;;4.93;;
60492;SDS011;46341;51.290;-2.474;2023-05-07T11:16:18;5.88;;;5.00;;
60492;SDS011;46341;51.290;-2.474;2023-05-07T11:18:46;4.65;;;4.00;;
60492;SDS011;46341;51.290;-2.474;2023-05-07T11:21:13;5.85;;;4.43;;
60492;SDS011;46341;51.290;-2.474;2023-05-07T11:23:58;5.00;;;4.50;;
60492;SDS011;46341;51.290;-2.474;2023-05-07T11:26:25;5.88;;;5.07;;
60492;SDS011;46341;51.290;-2.474;2023-05-07T11:28:51;6.32;;;5.07;;
60492;SDS011;46341;51.290;-2.474;2023-05-07T11:31:22;6.60;;;5.47;;
60492;SDS011;46341;51.290;-2.474;2023-05-07T11:33:51;7.70;;;5.90;;
60492;SDS011;46341;51.290;-2.474;2023-05-07T11:36:17;8.32;;;6.97;;
60492;SDS011;46341;51.290;-2.474;2023-05-07T11:38:45;10.52;;;9.52;;
60492;SDS011;46341;51.290;-2.474;2023-05-07T11:41:11;8.57;;;6.63;;
60492;SDS011;46341;51.290;-2.474;2023-05-07T11:43:40;8.57;;;7.68;;
60492;SDS011;46341;51.290;-2.474;2023-05-07T11:46:19;6.68;;;5.10;;
60492;SDS011;46341;51.290;-2.474;2023-05-07T11:48:46;7.07;;;5.47;;
60492;SDS011;46341;51.290;-2.474;2023-05-07T11:51:12;7.38;;;6.28;;
60492;SDS011;46341;51.290;-2.474;2023-05-07T11:53:40;6.45;;;5.00;;
60492;SDS011;46341;51.290;-2.474;2023-05-07T11:56:07;8.18;;;4.55;;
60492;SDS011;46341;51.290;-2.474;2023-05-07T11:58:34;7.03;;;5.25;;
60492;SDS011;46341;51.290;-2.474;2023-05-07T12:01:00;6.03;;;5.40;;
60492;SDS011;46341;51.290;-2.474;2023-05-07T12:03:26;5.97;;;3.78;;
60492;SDS011;46341;51.290;-2.474;2023-05-07T12:05:56;6.75;;;4.60;;
60492;SDS011;46341;51.290;-2.474;2023-05-07T12:08:23;6.53;;;4.18;;
60492;SDS011;46341;51.290;-2.474;2023-05-07T12:10:50;6.40;;;4.63;;
60492;SDS011;46341;51.290;-2.474;2023-05-07T12:13:20;8.05;;;5.15;;
60492;SDS011;46341;51.290;-2.474;2023-05-07T12:15:50;7.30;;;4.05;;
60492;SDS011;46341;51.290;-2.474;2023-05-07T12:18:17;7.35;;;3.95;;
60492;SDS011;46341;51.290;-2.474;2023-05-07T12:20:43;6.45;;;4.00;;
60492;SDS011;46341;51.290;-2.474;2023-05-07T12:23:11;5.57;;;3.30;;
60492;SDS011;46341;51.290;-2.474;2023-05-07T12:25:38;5.57;;;3.13;;
60492;SDS011;46341;51.290;-2.474;2023-05-07T12:28:05;5.85;;;2.10;;
60492;SDS011;46341;51.290;-2.474;2023-05-07T12:30:32;4.97;;;1.90;;
60492;SDS011;46341;51.290;-2.474;2023-05-07T12:32:58;4.82;;;2.20;;
60492;SDS011;46341;51.290;-2.474;2023-05-07T12:35:32;3.67;;;1.67;;
60492;SDS011;46341;51.290;-2.474;2023-05-07T12:37:58;4.53;;;2.08;;
60492;SDS011;46341;51.290;-2.474;2023-05-07T12:40:35;3.70;;;1.88;;
60492;SDS011;46341;51.290;-2.474;2023-05-07T12:45:29;17.45;;;3.33;;
60492;SDS011;46341;51.290;-2.474;2023-05-07T12:47:55;6.25;;;3.17;;
60492;SDS011;46341;51.290;-2.474;2023-05-07T12:55:15;5.13;;;2.05;;
60492;SDS011;46341;51.290;-2.474;2023-05-07T12:57:42;9.15;;;2.47;;
60492;SDS011;46341;51.290;-2.474;2023-05-07T13:00:09;3.50;;;1.48;;
60492;SDS011;46341;51.290;-2.474;2023-05-07T13:02:39;4.22;;;1.98;;
60492;SDS011;46341;51.290;-2.474;2023-05-07T13:05:06;10.77;;;2.45;;
60492;SDS011;46341;51.290;-2.474;2023-05-07T13:07:33;3.45;;;1.60;;
60492;SDS011;46341;51.290;-2.474;2023-05-07T13:09:59;5.70;;;1.70;;
60492;SDS011;46341;51.290;-2.474;2023-05-07T13:12:26;5.38;;;2.08;;
60492;SDS011;46341;51.290;-2.474;2023-05-07T13:14:53;4.70;;;1.73;;
60492;SDS011;46341;51.290;-2.474;2023-05-07T13:17:19;2.95;;;1.40;;
60492;SDS011;46341;51.290;-2.474;2023-05-07T13:19:46;4.70;;;1.70;;
60492;SDS011;46341;51.290;-2.474;2023-05-07T13:22:12;4.05;;;1.40;;
60492;SDS011;46341;51.290;-2.474;2023-05-07T13:24:39;4.10;;;1.63;;
60492;SDS011;46341;51.290;-2.474;2023-05-07T13:27:07;4.00;;;1.50;;
60492;SDS011;46341;51.290;-2.474;2023-05-07T13:29:34;4.38;;;1.58;;
60492;SDS011;46341;51.290;-2.474;2023-05-07T13:34:27;4.07;;;1.70;;
60492;SDS011;46341;51.290;-2.474;2023-05-07T13:36:54;4.80;;;1.33;;
60492;SDS011;46341;51.290;-2.474;2023-05-07T13:39:21;3.67;;;1.17;;
60492;SDS011;46341;51.290;-2.474;2023-05-07T13:44:14;3.85;;;1.40;;
60492;SDS011;46341;51.290;-2.474;2023-05-07T13:46:41;3.70;;;1.13;;
60492;SDS011;46341;51.290;-2.474;2023-05-07T13:51:33;3.55;;;1.05;;
60492;SDS011;46341;51.290;-2.474;2023-05-07T13:54:00;2.50;;;0.98;;
60492;SDS011;46341;51.290;-2.474;2023-05-07T13:56:27;3.75;;;1.40;;
60492;SDS011;46341;51.290;-2.474;2023-05-07T13:58:54;2.88;;;1.00;;
60492;SDS011;46341;51.290;-2.474;2023-05-07T14:01:26;2.95;;;1.00;;
60492;SDS011;46341;51.290;-2.474;2023-05-07T14:03:52;3.97;;;1.08;;
60492;SDS011;46341;51.290;-2.474;2023-05-07T14:06:19;1.92;;;0.77;;
60492;SDS011;46341;51.290;-2.474;2023-05-07T14:08:45;3.40;;;0.98;;
60492;SDS011;46341;51.290;-2.474;2023-05-07T14:11:12;2.63;;;1.08;;
60492;SDS011;46341;51.290;-2.474;2023-05-07T14:13:38;3.33;;;1.10;;
60492;SDS011;46341;51.290;-2.474;2023-05-07T14:16:04;3.17;;;1.25;;
60492;SDS011;46341;51.290;-2.474;2023-05-07T14:18:31;2.63;;;1.10;;
60492;SDS011;46341;51.290;-2.474;2023-05-07T14:20:59;3.10;;;1.10;;
60492;SDS011;46341;51.290;-2.474;2023-05-07T14:23:26;2.83;;;1.13;;
60492;SDS011;46341;51.290;-2.474;2023-05-07T14:25:53;3.53;;;1.30;;
60492;SDS011;46341;51.290;-2.474;2023-05-07T14:28:19;3.25;;;1.27;;
60492;SDS011;46341;51.290;-2.474;2023-05-07T14:30:46;4.60;;;1.27;;
60492;SDS011;46341;51.290;-2.474;2023-05-07T14:33:12;3.90;;;1.40;;
60492;SDS011;46341;51.290;-2.474;2023-05-07T14:35:39;3.38;;;1.20;;
60492;SDS011;46341;51.290;-2.474;2023-05-07T14:38:05;2.28;;;1.00;;
60492;SDS011;46341;51.290;-2.474;2023-05-07T14:42:58;4.78;;;1.27;;
60492;SDS011;46341;51.290;-2.474;2023-05-07T14:45:24;5.55;;;1.27;;
60492;SDS011;46341;51.290;-2.474;2023-05-07T14:47:51;3.63;;;1.35;;
60492;SDS011;46341;51.290;-2.474;2023-05-07T14:50:17;4.47;;;1.30;;